Startpagina
METAR-TAF:

METAR-TAF

Vliegvelden :

São Gabriel da Cachoeira, Amazonas, Brazilië

breedte: 00-08S, lengte: 067-05W, hoogte: 90 m

Actueel weer

Dit bericht is 53 minuten geleden gemaakt, om 13:00 UTC
Wind 4 kt uit het zuidwesten, variërend tussen het zuidzuidwesten en het westen
Temperatuur 27°C
Vochtigheid 94%
Druk 1011 hPa
Zicht 10 km of meer
Weinig wolken op 1000 ft

METAR: SBUA 191300Z 23004KT 200V260 9999 FEW010 27/26 Q1011

Tijdstip: 09:53 (13:53 UTC)


TAF: ontbreekt

Waarnemingen en weersverwachtingen van meer dan 4000 vliegvelden (METAR en TAF).

De beschikbare stations zijn de gele en rode punten op de kaart.

Ga met uw muis naar het station om de naam te zien.

Klik dan om waarnemingen en weersverwachtingen te zien.

kaart wijzigen: klik op de groene knoppen met een zwart kruis om in te zoomen, op de groene knop met een streepje om uit te zoomen of op de groene pijlen voor aangrenzende kaarten.


METAR-TAF: